sensor_id;sensor_type;location;lat;lon;timestamp;P1;durP1;ratioP1;P2;durP2;ratioP2
5710;SDS011;61291;52.524;13.422;2022-12-07T00:02:04;64.20;;;57.90;;
5710;SDS011;61291;52.524;13.422;2022-12-07T00:04:29;65.07;;;59.30;;
5710;SDS011;61291;52.524;13.422;2022-12-07T00:06:55;63.53;;;57.90;;
5710;SDS011;61291;52.524;13.422;2022-12-07T00:09:20;63.93;;;58.37;;
5710;SDS011;61291;52.524;13.422;2022-12-07T00:11:48;62.97;;;57.07;;
5710;SDS011;61291;52.524;13.422;2022-12-07T00:14:15;65.30;;;59.33;;
5710;SDS011;61291;52.524;13.422;2022-12-07T00:16:42;64.03;;;58.67;;
5710;SDS011;61291;52.524;13.422;2022-12-07T00:19:09;61.87;;;56.27;;
5710;SDS011;61291;52.524;13.422;2022-12-07T00:21:36;65.57;;;59.83;;
5710;SDS011;61291;52.524;13.422;2022-12-07T00:24:02;65.43;;;59.77;;
5710;SDS011;61291;52.524;13.422;2022-12-07T00:26:37;65.23;;;59.73;;
5710;SDS011;61291;52.524;13.422;2022-12-07T00:29:07;63.83;;;58.30;;
5710;SDS011;61291;52.524;13.422;2022-12-07T00:31:39;64.07;;;58.33;;
5710;SDS011;61291;52.524;13.422;2022-12-07T00:34:05;64.97;;;59.47;;
5710;SDS011;61291;52.524;13.422;2022-12-07T00:36:32;64.47;;;59.37;;
5710;SDS011;61291;52.524;13.422;2022-12-07T00:38:59;64.73;;;59.67;;
5710;SDS011;61291;52.524;13.422;2022-12-07T00:41:28;62.10;;;57.20;;
5710;SDS011;61291;52.524;13.422;2022-12-07T00:43:55;64.90;;;59.60;;
5710;SDS011;61291;52.524;13.422;2022-12-07T00:46:21;64.80;;;59.57;;
5710;SDS011;61291;52.524;13.422;2022-12-07T00:48:47;60.43;;;55.77;;
5710;SDS011;61291;52.524;13.422;2022-12-07T00:51:14;61.47;;;56.77;;
5710;SDS011;61291;52.524;13.422;2022-12-07T00:53:41;64.20;;;58.93;;
5710;SDS011;61291;52.524;13.422;2022-12-07T00:56:07;63.17;;;58.37;;
5710;SDS011;61291;52.524;13.422;2022-12-07T00:58:37;64.23;;;58.83;;
5710;SDS011;61291;52.524;13.422;2022-12-07T01:01:03;64.57;;;59.13;;
5710;SDS011;61291;52.524;13.422;2022-12-07T01:03:29;64.50;;;59.50;;
5710;SDS011;61291;52.524;13.422;2022-12-07T01:05:55;65.57;;;60.23;;
5710;SDS011;61291;52.524;13.422;2022-12-07T01:08:22;62.87;;;57.70;;
5710;SDS011;61291;52.524;13.422;2022-12-07T01:10:49;62.27;;;57.43;;
5710;SDS011;61291;52.524;13.422;2022-12-07T01:13:21;60.63;;;55.60;;
5710;SDS011;61291;52.524;13.422;2022-12-07T01:15:47;63.57;;;58.27;;
5710;SDS011;61291;52.524;13.422;2022-12-07T01:18:12;62.57;;;57.47;;
5710;SDS011;61291;52.524;13.422;2022-12-07T01:20:38;62.13;;;57.23;;
5710;SDS011;61291;52.524;13.422;2022-12-07T01:23:03;60.73;;;55.83;;
5710;SDS011;61291;52.524;13.422;2022-12-07T01:25:29;61.33;;;56.00;;
5710;SDS011;61291;52.524;13.422;2022-12-07T01:27:54;61.60;;;56.70;;
5710;SDS011;61291;52.524;13.422;2022-12-07T01:30:20;61.90;;;57.17;;
5710;SDS011;61291;52.524;13.422;2022-12-07T01:32:45;60.83;;;56.17;;
5710;SDS011;61291;52.524;13.422;2022-12-07T01:35:11;58.43;;;53.70;;
5710;SDS011;61291;52.524;13.422;2022-12-07T01:37:37;63.07;;;58.10;;
5710;SDS011;61291;52.524;13.422;2022-12-07T01:40:04;63.10;;;58.20;;
5710;SDS011;61291;52.524;13.422;2022-12-07T01:42:31;63.03;;;58.10;;
5710;SDS011;61291;52.524;13.422;2022-12-07T01:48:01;62.67;;;57.80;;
5710;SDS011;61291;52.524;13.422;2022-12-07T01:50:28;63.70;;;58.73;;
5710;SDS011;61291;52.524;13.422;2022-12-07T01:52:56;61.77;;;57.20;;
5710;SDS011;61291;52.524;13.422;2022-12-07T01:55:24;62.40;;;57.70;;
5710;SDS011;61291;52.524;13.422;2022-12-07T01:57:50;60.67;;;56.30;;
5710;SDS011;61291;52.524;13.422;2022-12-07T02:00:18;61.10;;;56.33;;
5710;SDS011;61291;52.524;13.422;2022-12-07T02:02:55;59.53;;;55.30;;
5710;SDS011;61291;52.524;13.422;2022-12-07T02:05:38;56.77;;;52.50;;
5710;SDS011;61291;52.524;13.422;2022-12-07T02:08:06;60.17;;;55.53;;
5710;SDS011;61291;52.524;13.422;2022-12-07T02:10:32;58.27;;;53.97;;
5710;SDS011;61291;52.524;13.422;2022-12-07T02:13:02;60.57;;;55.87;;
5710;SDS011;61291;52.524;13.422;2022-12-07T02:15:58;57.83;;;53.73;;
5710;SDS011;61291;52.524;13.422;2022-12-07T02:18:43;59.03;;;54.63;;
5710;SDS011;61291;52.524;13.422;2022-12-07T02:21:29;58.90;;;54.70;;
5710;SDS011;61291;52.524;13.422;2022-12-07T02:24:08;60.77;;;56.07;;
5710;SDS011;61291;52.524;13.422;2022-12-07T02:26:54;59.57;;;55.27;;
5710;SDS011;61291;52.524;13.422;2022-12-07T02:29:49;58.93;;;54.60;;
5710;SDS011;61291;52.524;13.422;2022-12-07T02:32:25;60.93;;;56.50;;
5710;SDS011;61291;52.524;13.422;2022-12-07T02:37:34;60.70;;;55.77;;
5710;SDS011;61291;52.524;13.422;2022-12-07T02:43:11;62.07;;;57.23;;
5710;SDS011;61291;52.524;13.422;2022-12-07T02:45:59;61.93;;;57.23;;
5710;SDS011;61291;52.524;13.422;2022-12-07T02:48:31;60.20;;;55.70;;
5710;SDS011;61291;52.524;13.422;2022-12-07T02:50:58;61.07;;;56.47;;
5710;SDS011;61291;52.524;13.422;2022-12-07T02:53:30;61.10;;;56.57;;
5710;SDS011;61291;52.524;13.422;2022-12-07T02:56:09;63.13;;;58.33;;
5710;SDS011;61291;52.524;13.422;2022-12-07T03:01:49;62.63;;;57.97;;
5710;SDS011;61291;52.524;13.422;2022-12-07T03:04:30;63.90;;;58.97;;
5710;SDS011;61291;52.524;13.422;2022-12-07T03:07:18;61.23;;;56.30;;
5710;SDS011;61291;52.524;13.422;2022-12-07T03:10:02;67.53;;;62.03;;
5710;SDS011;61291;52.524;13.422;2022-12-07T03:12:54;63.07;;;57.97;;
5710;SDS011;61291;52.524;13.422;2022-12-07T03:15:50;62.80;;;57.80;;
5710;SDS011;61291;52.524;13.422;2022-12-07T03:18:24;64.57;;;59.27;;
5710;SDS011;61291;52.524;13.422;2022-12-07T03:20:53;63.63;;;58.83;;
5710;SDS011;61291;52.524;13.422;2022-12-07T03:23:21;64.83;;;59.50;;
5710;SDS011;61291;52.524;13.422;2022-12-07T03:25:50;63.17;;;57.97;;
5710;SDS011;61291;52.524;13.422;2022-12-07T03:28:22;63.57;;;58.57;;
5710;SDS011;61291;52.524;13.422;2022-12-07T03:30:56;62.90;;;57.90;;
5710;SDS011;61291;52.524;13.422;2022-12-07T03:33:32;58.80;;;54.10;;
5710;SDS011;61291;52.524;13.422;2022-12-07T03:36:12;65.27;;;59.77;;
5710;SDS011;61291;52.524;13.422;2022-12-07T03:38:46;67.67;;;62.13;;
5710;SDS011;61291;52.524;13.422;2022-12-07T03:41:30;65.90;;;60.40;;
5710;SDS011;61291;52.524;13.422;2022-12-07T03:43:57;66.17;;;60.80;;
5710;SDS011;61291;52.524;13.422;2022-12-07T03:46:27;65.77;;;60.10;;
5710;SDS011;61291;52.524;13.422;2022-12-07T03:49:07;64.40;;;59.00;;
5710;SDS011;61291;52.524;13.422;2022-12-07T03:54:15;62.90;;;57.80;;
5710;SDS011;61291;52.524;13.422;2022-12-07T03:56:45;66.17;;;60.97;;
5710;SDS011;61291;52.524;13.422;2022-12-07T03:59:13;65.70;;;60.33;;
5710;SDS011;61291;52.524;13.422;2022-12-07T04:01:44;64.27;;;59.03;;
5710;SDS011;61291;52.524;13.422;2022-12-07T04:04:15;65.37;;;60.13;;
5710;SDS011;61291;52.524;13.422;2022-12-07T04:06:42;67.23;;;61.10;;
5710;SDS011;61291;52.524;13.422;2022-12-07T04:09:07;65.17;;;60.03;;
5710;SDS011;61291;52.524;13.422;2022-12-07T04:11:32;66.33;;;60.77;;
5710;SDS011;61291;52.524;13.422;2022-12-07T04:13:58;66.37;;;61.00;;
5710;SDS011;61291;52.524;13.422;2022-12-07T04:16:42;68.17;;;62.30;;
5710;SDS011;61291;52.524;13.422;2022-12-07T04:19:08;65.97;;;60.17;;
5710;SDS011;61291;52.524;13.422;2022-12-07T04:21:33;63.37;;;58.10;;
5710;SDS011;61291;52.524;13.422;2022-12-07T04:23:58;65.63;;;60.20;;
5710;SDS011;61291;52.524;13.422;2022-12-07T04:26:24;59.83;;;54.33;;
5710;SDS011;61291;52.524;13.422;2022-12-07T04:28:49;65.47;;;59.97;;
5710;SDS011;61291;52.524;13.422;2022-12-07T04:31:15;67.60;;;62.00;;
5710;SDS011;61291;52.524;13.422;2022-12-07T04:33:40;68.23;;;61.90;;
5710;SDS011;61291;52.524;13.422;2022-12-07T04:36:06;67.13;;;60.73;;
5710;SDS011;61291;52.524;13.422;2022-12-07T04:38:32;68.50;;;62.00;;
5710;SDS011;61291;52.524;13.422;2022-12-07T04:40:57;65.47;;;59.20;;
5710;SDS011;61291;52.524;13.422;2022-12-07T04:43:23;67.93;;;61.90;;
5710;SDS011;61291;52.524;13.422;2022-12-07T04:45:48;69.53;;;63.50;;
5710;SDS011;61291;52.524;13.422;2022-12-07T04:48:15;69.50;;;63.00;;
5710;SDS011;61291;52.524;13.422;2022-12-07T04:50:41;70.67;;;64.47;;
5710;SDS011;61291;52.524;13.422;2022-12-07T04:53:06;68.57;;;62.00;;
5710;SDS011;61291;52.524;13.422;2022-12-07T04:55:31;70.00;;;63.17;;
5710;SDS011;61291;52.524;13.422;2022-12-07T04:57:57;70.00;;;63.80;;
5710;SDS011;61291;52.524;13.422;2022-12-07T05:00:22;69.93;;;63.33;;
5710;SDS011;61291;52.524;13.422;2022-12-07T05:02:48;73.60;;;66.60;;
5710;SDS011;61291;52.524;13.422;2022-12-07T05:05:13;72.70;;;65.50;;
5710;SDS011;61291;52.524;13.422;2022-12-07T05:07:39;74.47;;;67.10;;
5710;SDS011;61291;52.524;13.422;2022-12-07T05:10:05;73.20;;;63.37;;
5710;SDS011;61291;52.524;13.422;2022-12-07T05:12:31;79.13;;;71.13;;
5710;SDS011;61291;52.524;13.422;2022-12-07T05:14:56;77.67;;;70.10;;
5710;SDS011;61291;52.524;13.422;2022-12-07T05:17:21;74.73;;;67.53;;
5710;SDS011;61291;52.524;13.422;2022-12-07T05:19:47;74.17;;;67.17;;
5710;SDS011;61291;52.524;13.422;2022-12-07T05:22:12;83.80;;;65.67;;
5710;SDS011;61291;52.524;13.422;2022-12-07T05:24:38;77.17;;;69.53;;
5710;SDS011;61291;52.524;13.422;2022-12-07T05:27:03;76.77;;;68.37;;
5710;SDS011;61291;52.524;13.422;2022-12-07T05:29:29;78.00;;;69.70;;
5710;SDS011;61291;52.524;13.422;2022-12-07T05:31:54;77.77;;;69.10;;
5710;SDS011;61291;52.524;13.422;2022-12-07T05:34:20;78.73;;;70.83;;
5710;SDS011;61291;52.524;13.422;2022-12-07T05:36:46;72.63;;;64.83;;
5710;SDS011;61291;52.524;13.422;2022-12-07T05:39:11;78.93;;;70.37;;
5710;SDS011;61291;52.524;13.422;2022-12-07T05:41:37;77.90;;;69.90;;
5710;SDS011;61291;52.524;13.422;2022-12-07T05:44:21;80.63;;;70.30;;
5710;SDS011;61291;52.524;13.422;2022-12-07T05:46:46;79.87;;;70.70;;
5710;SDS011;61291;52.524;13.422;2022-12-07T05:49:12;85.40;;;67.80;;
5710;SDS011;61291;52.524;13.422;2022-12-07T05:51:37;77.33;;;69.40;;
5710;SDS011;61291;52.524;13.422;2022-12-07T05:54:03;76.17;;;68.17;;
5710;SDS011;61291;52.524;13.422;2022-12-07T05:56:28;81.57;;;72.80;;
5710;SDS011;61291;52.524;13.422;2022-12-07T05:58:54;77.83;;;69.47;;
5710;SDS011;61291;52.524;13.422;2022-12-07T06:01:38;81.33;;;73.03;;
5710;SDS011;61291;52.524;13.422;2022-12-07T06:04:05;75.20;;;68.00;;
5710;SDS011;61291;52.524;13.422;2022-12-07T06:06:30;89.00;;;74.80;;
5710;SDS011;61291;52.524;13.422;2022-12-07T06:08:55;83.97;;;73.07;;
5710;SDS011;61291;52.524;13.422;2022-12-07T06:11:21;85.53;;;73.90;;
5710;SDS011;61291;52.524;13.422;2022-12-07T06:14:05;83.13;;;73.93;;
5710;SDS011;61291;52.524;13.422;2022-12-07T06:16:31;85.80;;;77.47;;
5710;SDS011;61291;52.524;13.422;2022-12-07T06:18:56;88.67;;;75.20;;
5710;SDS011;61291;52.524;13.422;2022-12-07T06:21:22;87.30;;;74.87;;
5710;SDS011;61291;52.524;13.422;2022-12-07T06:23:47;88.50;;;73.87;;
5710;SDS011;61291;52.524;13.422;2022-12-07T06:26:13;83.23;;;71.83;;
5710;SDS011;61291;52.524;13.422;2022-12-07T06:28:38;86.40;;;76.90;;
5710;SDS011;61291;52.524;13.422;2022-12-07T06:31:04;89.27;;;74.30;;
5710;SDS011;61291;52.524;13.422;2022-12-07T06:33:30;86.07;;;76.60;;
5710;SDS011;61291;52.524;13.422;2022-12-07T06:35:55;84.75;;;64.82;;
5710;SDS011;61291;52.524;13.422;2022-12-07T06:38:21;86.37;;;76.13;;
5710;SDS011;61291;52.524;13.422;2022-12-07T06:40:46;82.83;;;73.00;;
5710;SDS011;61291;52.524;13.422;2022-12-07T06:43:13;82.70;;;71.73;;
5710;SDS011;61291;52.524;13.422;2022-12-07T06:45:38;76.73;;;68.73;;
5710;SDS011;61291;52.524;13.422;2022-12-07T06:48:05;82.60;;;70.20;;
5710;SDS011;61291;52.524;13.422;2022-12-07T06:50:30;83.90;;;71.57;;
5710;SDS011;61291;52.524;13.422;2022-12-07T06:52:55;85.70;;;76.47;;
5710;SDS011;61291;52.524;13.422;2022-12-07T06:55:21;78.50;;;70.00;;
5710;SDS011;61291;52.524;13.422;2022-12-07T06:57:46;79.53;;;68.30;;
5710;SDS011;61291;52.524;13.422;2022-12-07T07:00:12;89.97;;;80.47;;
5710;SDS011;61291;52.524;13.422;2022-12-07T07:02:38;90.57;;;80.07;;
5710;SDS011;61291;52.524;13.422;2022-12-07T07:05:03;78.10;;;69.90;;
5710;SDS011;61291;52.524;13.422;2022-12-07T07:07:29;82.57;;;70.73;;
5710;SDS011;61291;52.524;13.422;2022-12-07T07:09:54;88.30;;;72.50;;
5710;SDS011;61291;52.524;13.422;2022-12-07T07:12:20;84.47;;;74.57;;
5710;SDS011;61291;52.524;13.422;2022-12-07T07:14:46;93.03;;;74.00;;
5710;SDS011;61291;52.524;13.422;2022-12-07T07:17:12;91.90;;;71.40;;
5710;SDS011;61291;52.524;13.422;2022-12-07T07:19:37;82.00;;;73.40;;
5710;SDS011;61291;52.524;13.422;2022-12-07T07:22:03;89.97;;;78.37;;
5710;SDS011;61291;52.524;13.422;2022-12-07T07:24:29;82.60;;;74.07;;
5710;SDS011;61291;52.524;13.422;2022-12-07T07:26:54;80.53;;;71.77;;
5710;SDS011;61291;52.524;13.422;2022-12-07T07:29:20;89.10;;;73.80;;
5710;SDS011;61291;52.524;13.422;2022-12-07T07:31:46;88.30;;;79.27;;
5710;SDS011;61291;52.524;13.422;2022-12-07T07:34:11;91.57;;;75.00;;
5710;SDS011;61291;52.524;13.422;2022-12-07T07:36:36;91.00;;;79.23;;
5710;SDS011;61291;52.524;13.422;2022-12-07T07:39:02;83.17;;;74.87;;
5710;SDS011;61291;52.524;13.422;2022-12-07T07:41:28;85.20;;;73.83;;
5710;SDS011;61291;52.524;13.422;2022-12-07T07:43:53;84.87;;;76.00;;
5710;SDS011;61291;52.524;13.422;2022-12-07T07:46:19;83.47;;;75.10;;
5710;SDS011;61291;52.524;13.422;2022-12-07T07:48:44;87.37;;;78.50;;
5710;SDS011;61291;52.524;13.422;2022-12-07T07:51:10;90.17;;;81.10;;
5710;SDS011;61291;52.524;13.422;2022-12-07T07:53:35;78.50;;;70.30;;
5710;SDS011;61291;52.524;13.422;2022-12-07T07:56:01;87.13;;;76.70;;
5710;SDS011;61291;52.524;13.422;2022-12-07T07:58:26;80.83;;;72.53;;
5710;SDS011;61291;52.524;13.422;2022-12-07T08:00:52;75.10;;;67.90;;
5710;SDS011;61291;52.524;13.422;2022-12-07T08:03:18;75.37;;;68.40;;
5710;SDS011;61291;52.524;13.422;2022-12-07T08:05:43;73.03;;;65.60;;
5710;SDS011;61291;52.524;13.422;2022-12-07T08:08:09;79.87;;;72.03;;
5710;SDS011;61291;52.524;13.422;2022-12-07T08:10:34;88.33;;;73.60;;
5710;SDS011;61291;52.524;13.422;2022-12-07T08:13:00;75.50;;;68.77;;
5710;SDS011;61291;52.524;13.422;2022-12-07T08:15:42;70.93;;;64.60;;
5710;SDS011;61291;52.524;13.422;2022-12-07T08:18:09;75.70;;;68.70;;
5710;SDS011;61291;52.524;13.422;2022-12-07T08:20:35;69.57;;;63.87;;
5710;SDS011;61291;52.524;13.422;2022-12-07T08:23:02;78.10;;;70.93;;
5710;SDS011;61291;52.524;13.422;2022-12-07T08:25:28;74.77;;;68.70;;
5710;SDS011;61291;52.524;13.422;2022-12-07T08:27:54;73.40;;;66.70;;
5710;SDS011;61291;52.524;13.422;2022-12-07T08:30:20;59.75;;;54.38;;
5710;SDS011;61291;52.524;13.422;2022-12-07T08:32:47;70.30;;;64.63;;
5710;SDS011;61291;52.524;13.422;2022-12-07T08:35:13;67.67;;;62.23;;
5710;SDS011;61291;52.524;13.422;2022-12-07T08:37:39;69.07;;;62.22;;
5710;SDS011;61291;52.524;13.422;2022-12-07T08:40:05;66.67;;;61.50;;
5710;SDS011;61291;52.524;13.422;2022-12-07T08:42:32;63.87;;;58.87;;
5710;SDS011;61291;52.524;13.422;2022-12-07T08:45:05;63.17;;;58.30;;
5710;SDS011;61291;52.524;13.422;2022-12-07T08:47:33;67.40;;;61.10;;
5710;SDS011;61291;52.524;13.422;2022-12-07T08:50:00;67.87;;;62.70;;
5710;SDS011;61291;52.524;13.422;2022-12-07T08:52:28;65.73;;;60.73;;
5710;SDS011;61291;52.524;13.422;2022-12-07T08:54:55;65.57;;;60.27;;
5710;SDS011;61291;52.524;13.422;2022-12-07T08:57:20;62.10;;;57.00;;
5710;SDS011;61291;52.524;13.422;2022-12-07T08:59:46;59.50;;;54.93;;
5710;SDS011;61291;52.524;13.422;2022-12-07T09:02:12;60.03;;;55.60;;
5710;SDS011;61291;52.524;13.422;2022-12-07T09:04:37;60.33;;;56.20;;
5710;SDS011;61291;52.524;13.422;2022-12-07T09:07:03;62.93;;;58.00;;
5710;SDS011;61291;52.524;13.422;2022-12-07T09:09:29;49.95;;;46.45;;
5710;SDS011;61291;52.524;13.422;2022-12-07T09:11:54;58.47;;;54.37;;
5710;SDS011;61291;52.524;13.422;2022-12-07T09:14:20;60.47;;;56.40;;
5710;SDS011;61291;52.524;13.422;2022-12-07T09:16:46;58.23;;;54.13;;
5710;SDS011;61291;52.524;13.422;2022-12-07T09:19:12;50.20;;;46.70;;
5710;SDS011;61291;52.524;13.422;2022-12-07T09:21:37;61.60;;;56.10;;
5710;SDS011;61291;52.524;13.422;2022-12-07T09:24:03;62.03;;;56.27;;
5710;SDS011;61291;52.524;13.422;2022-12-07T09:26:28;59.83;;;55.47;;
5710;SDS011;61291;52.524;13.422;2022-12-07T09:28:54;60.67;;;56.67;;
5710;SDS011;61291;52.524;13.422;2022-12-07T09:31:19;61.80;;;57.50;;
5710;SDS011;61291;52.524;13.422;2022-12-07T09:33:45;62.93;;;58.23;;
5710;SDS011;61291;52.524;13.422;2022-12-07T09:36:10;62.17;;;57.87;;
5710;SDS011;61291;52.524;13.422;2022-12-07T09:38:36;62.97;;;58.50;;
5710;SDS011;61291;52.524;13.422;2022-12-07T09:41:05;59.27;;;55.00;;
5710;SDS011;61291;52.524;13.422;2022-12-07T09:43:32;60.80;;;56.40;;
5710;SDS011;61291;52.524;13.422;2022-12-07T09:46:00;62.30;;;57.70;;
5710;SDS011;61291;52.524;13.422;2022-12-07T09:48:31;62.93;;;58.37;;
5710;SDS011;61291;52.524;13.422;2022-12-07T09:51:00;51.75;;;47.85;;
5710;SDS011;61291;52.524;13.422;2022-12-07T09:53:27;63.43;;;58.33;;
5710;SDS011;61291;52.524;13.422;2022-12-07T09:55:55;64.10;;;59.57;;
5710;SDS011;61291;52.524;13.422;2022-12-07T09:58:22;63.97;;;58.40;;
5710;SDS011;61291;52.524;13.422;2022-12-07T10:00:52;66.27;;;61.53;;
5710;SDS011;61291;52.524;13.422;2022-12-07T10:03:21;61.40;;;57.13;;
5710;SDS011;61291;52.524;13.422;2022-12-07T10:05:48;59.70;;;55.70;;
5710;SDS011;61291;52.524;13.422;2022-12-07T10:08:15;61.43;;;56.90;;
5710;SDS011;61291;52.524;13.422;2022-12-07T10:10:42;61.77;;;57.47;;
5710;SDS011;61291;52.524;13.422;2022-12-07T10:13:10;59.70;;;55.50;;
5710;SDS011;61291;52.524;13.422;2022-12-07T10:15:40;60.60;;;56.43;;
5710;SDS011;61291;52.524;13.422;2022-12-07T10:21:00;59.30;;;55.37;;
5710;SDS011;61291;52.524;13.422;2022-12-07T10:23:29;61.03;;;56.93;;
5710;SDS011;61291;52.524;13.422;2022-12-07T10:25:55;60.57;;;56.33;;
5710;SDS011;61291;52.524;13.422;2022-12-07T10:28:21;57.37;;;53.33;;
5710;SDS011;61291;52.524;13.422;2022-12-07T10:33:26;61.37;;;56.93;;
5710;SDS011;61291;52.524;13.422;2022-12-07T10:35:54;62.90;;;57.60;;
5710;SDS011;61291;52.524;13.422;2022-12-07T10:38:19;62.53;;;57.80;;
5710;SDS011;61291;52.524;13.422;2022-12-07T10:40:45;59.27;;;54.10;;
5710;SDS011;61291;52.524;13.422;2022-12-07T10:45:41;59.47;;;54.97;;
5710;SDS011;61291;52.524;13.422;2022-12-07T10:48:39;60.33;;;55.60;;
5710;SDS011;61291;52.524;13.422;2022-12-07T10:51:12;59.07;;;55.07;;
5710;SDS011;61291;52.524;13.422;2022-12-07T10:57:10;66.77;;;62.10;;
5710;SDS011;61291;52.524;13.422;2022-12-07T10:59:48;61.43;;;57.00;;
5710;SDS011;61291;52.524;13.422;2022-12-07T11:02:28;57.65;;;53.55;;
5710;SDS011;61291;52.524;13.422;2022-12-07T11:05:23;61.83;;;57.43;;
5710;SDS011;61291;52.524;13.422;2022-12-07T11:10:50;62.40;;;57.80;;
5710;SDS011;61291;52.524;13.422;2022-12-07T11:13:26;59.63;;;55.20;;
5710;SDS011;61291;52.524;13.422;2022-12-07T11:16:05;63.00;;;58.60;;
5710;SDS011;61291;52.524;13.422;2022-12-07T11:29:37;59.70;;;55.50;;
5710;SDS011;61291;52.524;13.422;2022-12-07T11:32:36;62.33;;;57.50;;
5710;SDS011;61291;52.524;13.422;2022-12-07T11:35:29;62.30;;;57.37;;
5710;SDS011;61291;52.524;13.422;2022-12-07T11:38:12;62.23;;;57.63;;
5710;SDS011;61291;52.524;13.422;2022-12-07T11:40:43;53.05;;;48.95;;
5710;SDS011;61291;52.524;13.422;2022-12-07T11:43:15;60.27;;;55.90;;
5710;SDS011;61291;52.524;13.422;2022-12-07T11:46:06;64.67;;;59.87;;
5710;SDS011;61291;52.524;13.422;2022-12-07T11:48:40;58.88;;;54.13;;
5710;SDS011;61291;52.524;13.422;2022-12-07T11:51:10;63.90;;;58.50;;
5710;SDS011;61291;52.524;13.422;2022-12-07T11:53:38;63.93;;;59.03;;
5710;SDS011;61291;52.524;13.422;2022-12-07T11:56:27;64.77;;;59.07;;
5710;SDS011;61291;52.524;13.422;2022-12-07T11:58:57;63.33;;;57.50;;
5710;SDS011;61291;52.524;13.422;2022-12-07T12:06:40;61.13;;;55.77;;
5710;SDS011;61291;52.524;13.422;2022-12-07T12:09:14;60.07;;;54.87;;
5710;SDS011;61291;52.524;13.422;2022-12-07T12:11:47;63.03;;;57.70;;
5710;SDS011;61291;52.524;13.422;2022-12-07T12:22:50;62.87;;;58.17;;
5710;SDS011;61291;52.524;13.422;2022-12-07T12:25:30;62.57;;;57.90;;
5710;SDS011;61291;52.524;13.422;2022-12-07T12:28:03;49.75;;;46.05;;
5710;SDS011;61291;52.524;13.422;2022-12-07T12:30:30;64.20;;;59.20;;
5710;SDS011;61291;52.524;13.422;2022-12-07T12:33:05;65.83;;;60.60;;
5710;SDS011;61291;52.524;13.422;2022-12-07T12:47:00;63.27;;;58.07;;
5710;SDS011;61291;52.524;13.422;2022-12-07T12:54:35;62.70;;;57.90;;
5710;SDS011;61291;52.524;13.422;2022-12-07T13:12:57;60.40;;;56.03;;
5710;SDS011;61291;52.524;13.422;2022-12-07T13:20:47;61.87;;;57.30;;
5710;SDS011;61291;52.524;13.422;2022-12-07T13:23:16;62.43;;;57.47;;
5710;SDS011;61291;52.524;13.422;2022-12-07T13:25:46;61.93;;;56.63;;
5710;SDS011;61291;52.524;13.422;2022-12-07T13:28:19;60.27;;;55.77;;
5710;SDS011;61291;52.524;13.422;2022-12-07T13:33:34;63.60;;;57.73;;
5710;SDS011;61291;52.524;13.422;2022-12-07T13:35:59;62.10;;;56.67;;
5710;SDS011;61291;52.524;13.422;2022-12-07T13:38:29;63.43;;;58.23;;
5710;SDS011;61291;52.524;13.422;2022-12-07T13:43:29;63.93;;;58.80;;
5710;SDS011;61291;52.524;13.422;2022-12-07T13:45:58;60.60;;;56.33;;
5710;SDS011;61291;52.524;13.422;2022-12-07T13:51:23;62.00;;;57.33;;
5710;SDS011;61291;52.524;13.422;2022-12-07T13:54:01;59.17;;;54.17;;
5710;SDS011;61291;52.524;13.422;2022-12-07T13:56:34;56.97;;;52.03;;
5710;SDS011;61291;52.524;13.422;2022-12-07T13:59:00;55.10;;;51.03;;
5710;SDS011;61291;52.524;13.422;2022-12-07T14:01:26;57.67;;;52.83;;
5710;SDS011;61291;52.524;13.422;2022-12-07T14:03:53;55.43;;;51.20;;
5710;SDS011;61291;52.524;13.422;2022-12-07T14:06:27;56.17;;;50.97;;
5710;SDS011;61291;52.524;13.422;2022-12-07T14:11:52;55.30;;;51.40;;
5710;SDS011;61291;52.524;13.422;2022-12-07T14:14:23;56.47;;;51.70;;
5710;SDS011;61291;52.524;13.422;2022-12-07T14:16:55;46.33;;;42.47;;
5710;SDS011;61291;52.524;13.422;2022-12-07T14:22:21;58.23;;;53.93;;
5710;SDS011;61291;52.524;13.422;2022-12-07T14:24:49;57.80;;;53.50;;
5710;SDS011;61291;52.524;13.422;2022-12-07T14:27:18;60.00;;;54.00;;
5710;SDS011;61291;52.524;13.422;2022-12-07T14:29:45;60.63;;;55.93;;
5710;SDS011;61291;52.524;13.422;2022-12-07T14:32:19;57.80;;;53.23;;
5710;SDS011;61291;52.524;13.422;2022-12-07T14:34:53;56.47;;;51.73;;
5710;SDS011;61291;52.524;13.422;2022-12-07T14:37:19;56.47;;;51.70;;
5710;SDS011;61291;52.524;13.422;2022-12-07T14:39:44;51.93;;;47.90;;
5710;SDS011;61291;52.524;13.422;2022-12-07T14:42:10;55.37;;;51.30;;
5710;SDS011;61291;52.524;13.422;2022-12-07T14:44:35;55.83;;;51.67;;
5710;SDS011;61291;52.524;13.422;2022-12-07T14:47:01;53.83;;;49.60;;
5710;SDS011;61291;52.524;13.422;2022-12-07T14:49:26;56.10;;;51.53;;
5710;SDS011;61291;52.524;13.422;2022-12-07T14:51:52;58.10;;;53.20;;
5710;SDS011;61291;52.524;13.422;2022-12-07T14:54:18;55.93;;;51.50;;
5710;SDS011;61291;52.524;13.422;2022-12-07T14:56:45;53.20;;;49.20;;
5710;SDS011;61291;52.524;13.422;2022-12-07T14:59:14;54.70;;;50.53;;
5710;SDS011;61291;52.524;13.422;2022-12-07T15:01:41;54.53;;;50.00;;
5710;SDS011;61291;52.524;13.422;2022-12-07T15:04:06;56.53;;;51.97;;
5710;SDS011;61291;52.524;13.422;2022-12-07T15:06:34;55.10;;;51.03;;
5710;SDS011;61291;52.524;13.422;2022-12-07T15:08:59;54.57;;;50.83;;
5710;SDS011;61291;52.524;13.422;2022-12-07T15:11:25;54.60;;;50.40;;
5710;SDS011;61291;52.524;13.422;2022-12-07T15:13:50;58.10;;;53.27;;
5710;SDS011;61291;52.524;13.422;2022-12-07T15:16:36;54.57;;;50.17;;
5710;SDS011;61291;52.524;13.422;2022-12-07T15:19:05;54.83;;;50.43;;
5710;SDS011;61291;52.524;13.422;2022-12-07T15:21:47;54.97;;;50.47;;
5710;SDS011;61291;52.524;13.422;2022-12-07T15:24:13;54.87;;;50.80;;
5710;SDS011;61291;52.524;13.422;2022-12-07T15:26:39;56.70;;;51.97;;
5710;SDS011;61291;52.524;13.422;2022-12-07T15:29:05;56.27;;;51.90;;
5710;SDS011;61291;52.524;13.422;2022-12-07T15:31:31;55.67;;;51.17;;
5710;SDS011;61291;52.524;13.422;2022-12-07T15:33:57;57.63;;;53.50;;
5710;SDS011;61291;52.524;13.422;2022-12-07T15:36:23;55.67;;;51.30;;
5710;SDS011;61291;52.524;13.422;2022-12-07T15:38:51;55.37;;;51.40;;
5710;SDS011;61291;52.524;13.422;2022-12-07T15:41:17;54.27;;;50.33;;
5710;SDS011;61291;52.524;13.422;2022-12-07T15:43:43;54.97;;;50.60;;
5710;SDS011;61291;52.524;13.422;2022-12-07T15:46:34;55.03;;;51.33;;
5710;SDS011;61291;52.524;13.422;2022-12-07T15:49:02;53.93;;;49.57;;
5710;SDS011;61291;52.524;13.422;2022-12-07T15:51:29;51.53;;;47.30;;
5710;SDS011;61291;52.524;13.422;2022-12-07T15:53:56;55.60;;;51.50;;
5710;SDS011;61291;52.524;13.422;2022-12-07T15:56:22;56.40;;;52.17;;
5710;SDS011;61291;52.524;13.422;2022-12-07T15:58:48;56.40;;;52.07;;
5710;SDS011;61291;52.524;13.422;2022-12-07T16:01:14;55.87;;;51.17;;
5710;SDS011;61291;52.524;13.422;2022-12-07T16:03:43;56.63;;;52.03;;
5710;SDS011;61291;52.524;13.422;2022-12-07T16:06:10;56.27;;;52.50;;
5710;SDS011;61291;52.524;13.422;2022-12-07T16:08:37;53.07;;;48.97;;
5710;SDS011;61291;52.524;13.422;2022-12-07T16:11:07;54.87;;;50.73;;
5710;SDS011;61291;52.524;13.422;2022-12-07T16:13:33;54.20;;;50.73;;
5710;SDS011;61291;52.524;13.422;2022-12-07T16:16:06;56.20;;;52.43;;
5710;SDS011;61291;52.524;13.422;2022-12-07T16:18:33;57.43;;;53.37;;